createdAt,value
2018-04-20T04:56:15.264Z,99.90
2018-04-20T04:58:46.343Z,99.90
2018-04-20T05:01:15.871Z,99.90
2018-04-20T05:03:44.594Z,99.90
2018-04-20T05:06:14.207Z,99.90
2018-04-20T05:08:43.668Z,99.90
2018-04-20T05:11:13.283Z,99.90
2018-04-20T05:13:41.997Z,99.90
2018-04-20T05:16:10.771Z,99.90
2018-04-20T05:18:39.473Z,99.90
2018-04-20T05:21:10.570Z,99.90
2018-04-20T05:23:40.182Z,99.90
2018-04-20T05:26:23.293Z,99.90
2018-04-20T05:31:50.014Z,99.90
2018-04-20T05:40:05.995Z,99.90
2018-04-20T05:42:35.326Z,99.90
2018-04-20T05:45:03.814Z,99.90
2018-04-20T05:47:32.600Z,99.90
2018-04-20T05:50:01.134Z,99.90
2018-04-20T05:52:29.618Z,99.90
2018-04-20T05:54:59.103Z,99.90
2018-04-20T05:57:27.620Z,99.90
2018-04-20T05:59:56.114Z,99.90
2018-04-20T06:02:26.175Z,99.90
2018-04-20T06:04:55.609Z,99.90
2018-04-20T06:07:24.700Z,99.90
2018-04-20T06:09:53.186Z,99.90
2018-04-20T06:12:21.687Z,99.90
2018-04-20T06:14:50.980Z,99.90
2018-04-20T06:17:19.625Z,99.90
2018-04-20T06:19:48.128Z,99.90
2018-04-20T06:22:17.343Z,99.90
2018-04-20T06:24:45.845Z,99.90
2018-04-20T06:27:15.138Z,99.90
2018-04-20T06:29:45.131Z,99.90
2018-04-20T06:32:13.838Z,99.90
2018-04-20T06:34:42.586Z,99.90
2018-04-20T06:37:11.793Z,99.90
2018-04-20T06:39:40.509Z,99.90
2018-04-20T06:42:09.326Z,99.90
2018-04-20T06:44:38.063Z,99.90
2018-04-20T06:47:06.771Z,99.90
2018-04-20T06:49:35.560Z,99.90
2018-04-20T06:52:04.265Z,99.90
2018-04-20T06:54:33.750Z,99.90
2018-04-20T06:57:02.486Z,99.90
2018-04-20T06:59:31.209Z,99.90
2018-04-20T07:01:59.922Z,99.90
2018-04-20T07:04:28.665Z,99.90
2018-04-20T07:06:57.397Z,99.90
2018-04-20T07:09:26.116Z,99.90
2018-04-20T07:11:54.869Z,99.90
2018-04-20T07:14:23.602Z,99.90
2018-04-20T07:16:52.309Z,99.90
2018-04-20T07:19:21.060Z,99.90
2018-04-20T07:21:50.535Z,99.90
2018-04-20T07:24:18.944Z,99.90
2018-04-20T07:26:47.702Z,99.90
2018-04-20T07:29:16.414Z,99.90
2018-04-20T07:31:45.126Z,99.90
2018-04-20T07:34:13.853Z,99.90
2018-04-20T07:36:42.607Z,99.90
2018-04-20T07:39:11.481Z,99.90
2018-04-20T07:41:41.022Z,99.90
2018-04-20T07:44:09.925Z,99.90
2018-04-20T07:46:38.643Z,99.90
2018-04-20T07:49:07.386Z,99.90
2018-04-20T07:51:36.122Z,99.90
2018-04-20T07:54:04.850Z,99.90
2018-04-20T07:56:33.593Z,99.90
2018-04-20T07:59:02.304Z,99.90
2018-04-20T08:01:31.768Z,99.90
2018-04-20T08:04:00.498Z,99.90
2018-04-20T08:06:29.217Z,99.90
2018-04-20T08:08:57.933Z,99.90
2018-04-20T08:11:26.652Z,99.90
2018-04-20T08:13:55.360Z,99.00
2018-04-20T08:16:24.237Z,97.60
2018-04-20T08:18:53.733Z,95.30
2018-04-20T08:21:22.424Z,95.20
2018-04-20T08:23:51.153Z,94.60
2018-04-20T08:26:21.201Z,93.80
2018-04-20T08:28:49.918Z,93.50
2018-04-20T08:31:18.655Z,93.40
2018-04-20T08:33:48.219Z,91.40
2018-04-20T08:36:17.760Z,90.10
2018-04-20T08:38:46.558Z,90.00
2018-04-20T08:41:15.054Z,90.40
2018-04-20T08:43:43.806Z,90.00
2018-04-20T08:46:12.529Z,87.00
2018-04-20T08:48:41.262Z,86.40
2018-04-20T08:51:10.028Z,82.90
2018-04-20T08:53:38.737Z,79.50
2018-04-20T08:56:07.465Z,78.30
2018-04-20T08:58:37.041Z,73.90
2018-04-20T09:01:06.514Z,71.30
2018-04-20T09:03:35.247Z,71.50
